sensor_id;sensor_type;location;lat;lon;timestamp;temperature;humidity
37518;DHT22;23366;52.498;13.446;2023-03-01T00:01:23;1.90;99.90
37518;DHT22;23366;52.498;13.446;2023-03-01T00:03:57;1.90;99.90
37518;DHT22;23366;52.498;13.446;2023-03-01T00:06:24;1.90;99.90
37518;DHT22;23366;52.498;13.446;2023-03-01T00:08:50;2.00;99.90
37518;DHT22;23366;52.498;13.446;2023-03-01T00:11:19;2.00;99.90
37518;DHT22;23366;52.498;13.446;2023-03-01T00:13:46;1.90;99.90
37518;DHT22;23366;52.498;13.446;2023-03-01T00:16:15;1.90;99.90
37518;DHT22;23366;52.498;13.446;2023-03-01T00:18:41;1.90;99.90
37518;DHT22;23366;52.498;13.446;2023-03-01T00:21:07;1.90;99.90
37518;DHT22;23366;52.498;13.446;2023-03-01T00:23:37;1.90;99.90
37518;DHT22;23366;52.498;13.446;2023-03-01T00:26:06;1.90;99.90
37518;DHT22;23366;52.498;13.446;2023-03-01T00:28:32;1.80;99.90
37518;DHT22;23366;52.498;13.446;2023-03-01T00:33:30;1.70;99.90
37518;DHT22;23366;52.498;13.446;2023-03-01T00:35:58;1.60;99.90
37518;DHT22;23366;52.498;13.446;2023-03-01T00:38:23;1.60;99.90
37518;DHT22;23366;52.498;13.446;2023-03-01T00:40:49;1.60;99.90
37518;DHT22;23366;52.498;13.446;2023-03-01T00:43:15;1.60;99.90
37518;DHT22;23366;52.498;13.446;2023-03-01T00:45:40;1.60;99.90
37518;DHT22;23366;52.498;13.446;2023-03-01T00:48:08;1.60;99.90
37518;DHT22;23366;52.498;13.446;2023-03-01T00:50:34;1.60;99.90
37518;DHT22;23366;52.498;13.446;2023-03-01T00:52:59;1.60;99.90
37518;DHT22;23366;52.498;13.446;2023-03-01T00:55:25;1.60;99.90
37518;DHT22;23366;52.498;13.446;2023-03-01T00:57:51;1.50;99.90
37518;DHT22;23366;52.498;13.446;2023-03-01T01:00:18;1.60;99.90
37518;DHT22;23366;52.498;13.446;2023-03-01T01:02:44;1.50;99.90
37518;DHT22;23366;52.498;13.446;2023-03-01T01:05:10;1.50;99.90
37518;DHT22;23366;52.498;13.446;2023-03-01T01:07:36;1.50;99.90
37518;DHT22;23366;52.498;13.446;2023-03-01T01:10:02;1.50;99.90
37518;DHT22;23366;52.498;13.446;2023-03-01T01:12:28;1.40;99.90
37518;DHT22;23366;52.498;13.446;2023-03-01T01:14:53;1.40;99.90
37518;DHT22;23366;52.498;13.446;2023-03-01T01:17:19;1.40;99.90
37518;DHT22;23366;52.498;13.446;2023-03-01T01:19:44;1.40;99.90
37518;DHT22;23366;52.498;13.446;2023-03-01T01:22:10;1.30;99.90
37518;DHT22;23366;52.498;13.446;2023-03-01T01:24:36;1.30;99.90
37518;DHT22;23366;52.498;13.446;2023-03-01T01:27:01;1.30;99.90
37518;DHT22;23366;52.498;13.446;2023-03-01T01:29:27;1.30;99.90
37518;DHT22;23366;52.498;13.446;2023-03-01T01:31:52;1.30;99.90
37518;DHT22;23366;52.498;13.446;2023-03-01T01:34:22;1.30;99.90
37518;DHT22;23366;52.498;13.446;2023-03-01T01:36:49;1.20;99.90
37518;DHT22;23366;52.498;13.446;2023-03-01T01:39:16;1.20;99.90
37518;DHT22;23366;52.498;13.446;2023-03-01T01:41:42;1.20;99.90
37518;DHT22;23366;52.498;13.446;2023-03-01T01:44:22;1.20;99.90
37518;DHT22;23366;52.498;13.446;2023-03-01T01:47:04;1.20;99.90
37518;DHT22;23366;52.498;13.446;2023-03-01T01:52:27;1.20;99.90
37518;DHT22;23366;52.498;13.446;2023-03-01T01:55:08;1.20;99.90
37518;DHT22;23366;52.498;13.446;2023-03-01T01:57:44;1.20;99.90
37518;DHT22;23366;52.498;13.446;2023-03-01T02:00:20;1.20;99.90
37518;DHT22;23366;52.498;13.446;2023-03-01T02:02:46;1.20;99.90
37518;DHT22;23366;52.498;13.446;2023-03-01T02:05:27;1.10;99.90
37518;DHT22;23366;52.498;13.446;2023-03-01T02:07:54;1.10;99.90
37518;DHT22;23366;52.498;13.446;2023-03-01T02:10:22;1.10;99.90
37518;DHT22;23366;52.498;13.446;2023-03-01T02:12:49;1.00;99.90
37518;DHT22;23366;52.498;13.446;2023-03-01T02:15:14;1.10;99.90
37518;DHT22;23366;52.498;13.446;2023-03-01T02:17:40;1.10;99.90
37518;DHT22;23366;52.498;13.446;2023-03-01T02:20:14;1.20;99.90
37518;DHT22;23366;52.498;13.446;2023-03-01T02:22:40;1.20;99.90
37518;DHT22;23366;52.498;13.446;2023-03-01T02:30:46;1.20;99.90
37518;DHT22;23366;52.498;13.446;2023-03-01T02:33:32;1.20;99.90
37518;DHT22;23366;52.498;13.446;2023-03-01T02:36:08;1.20;99.90
37518;DHT22;23366;52.498;13.446;2023-03-01T02:38:34;1.30;99.90
37518;DHT22;23366;52.498;13.446;2023-03-01T02:41:02;1.20;99.90
37518;DHT22;23366;52.498;13.446;2023-03-01T02:43:31;1.30;99.90
37518;DHT22;23366;52.498;13.446;2023-03-01T02:46:04;1.30;99.90
37518;DHT22;23366;52.498;13.446;2023-03-01T02:48:40;1.30;99.90
37518;DHT22;23366;52.498;13.446;2023-03-01T02:51:18;1.30;99.90
37518;DHT22;23366;52.498;13.446;2023-03-01T02:56:37;1.30;99.90
37518;DHT22;23366;52.498;13.446;2023-03-01T02:59:04;1.20;99.90
37518;DHT22;23366;52.498;13.446;2023-03-01T03:01:31;1.30;99.90
37518;DHT22;23366;52.498;13.446;2023-03-01T03:04:08;1.20;99.90
37518;DHT22;23366;52.498;13.446;2023-03-01T03:06:35;1.20;99.90
37518;DHT22;23366;52.498;13.446;2023-03-01T03:09:01;1.20;99.90
37518;DHT22;23366;52.498;13.446;2023-03-01T03:11:27;1.10;99.90
37518;DHT22;23366;52.498;13.446;2023-03-01T03:13:53;1.10;99.90
37518;DHT22;23366;52.498;13.446;2023-03-01T03:16:19;1.00;99.90
37518;DHT22;23366;52.498;13.446;2023-03-01T03:18:45;0.90;99.90
37518;DHT22;23366;52.498;13.446;2023-03-01T03:21:12;0.80;99.90
37518;DHT22;23366;52.498;13.446;2023-03-01T03:23:38;0.70;99.90
37518;DHT22;23366;52.498;13.446;2023-03-01T03:26:09;0.50;99.90
37518;DHT22;23366;52.498;13.446;2023-03-01T03:28:39;0.50;99.90
37518;DHT22;23366;52.498;13.446;2023-03-01T03:31:07;0.50;99.90
37518;DHT22;23366;52.498;13.446;2023-03-01T03:33:32;0.40;99.90
37518;DHT22;23366;52.498;13.446;2023-03-01T03:35:58;0.50;99.90
37518;DHT22;23366;52.498;13.446;2023-03-01T03:38:24;0.50;99.90
37518;DHT22;23366;52.498;13.446;2023-03-01T03:41:00;0.50;99.90
37518;DHT22;23366;52.498;13.446;2023-03-01T03:43:27;0.30;99.90
37518;DHT22;23366;52.498;13.446;2023-03-01T03:45:53;0.40;99.90
37518;DHT22;23366;52.498;13.446;2023-03-01T03:48:19;0.40;99.90
37518;DHT22;23366;52.498;13.446;2023-03-01T03:50:51;0.40;99.90
37518;DHT22;23366;52.498;13.446;2023-03-01T03:53:17;0.40;99.90
37518;DHT22;23366;52.498;13.446;2023-03-01T03:55:48;0.30;99.90
37518;DHT22;23366;52.498;13.446;2023-03-01T03:58:15;0.30;99.90
37518;DHT22;23366;52.498;13.446;2023-03-01T04:00:43;0.30;99.90
37518;DHT22;23366;52.498;13.446;2023-03-01T04:03:10;0.30;99.90
37518;DHT22;23366;52.498;13.446;2023-03-01T04:05:37;0.30;99.90
37518;DHT22;23366;52.498;13.446;2023-03-01T04:08:03;0.30;99.90
37518;DHT22;23366;52.498;13.446;2023-03-01T04:10:38;0.20;99.90
37518;DHT22;23366;52.498;13.446;2023-03-01T04:13:10;0.20;99.90
37518;DHT22;23366;52.498;13.446;2023-03-01T04:15:36;0.20;99.90
37518;DHT22;23366;52.498;13.446;2023-03-01T04:18:03;0.20;99.90
37518;DHT22;23366;52.498;13.446;2023-03-01T04:20:31;0.20;99.90
37518;DHT22;23366;52.498;13.446;2023-03-01T04:23:05;0.20;99.90
37518;DHT22;23366;52.498;13.446;2023-03-01T04:25:53;0.20;99.90
37518;DHT22;23366;52.498;13.446;2023-03-01T04:28:32;0.20;99.90
37518;DHT22;23366;52.498;13.446;2023-03-01T04:31:22;0.20;99.90
37518;DHT22;23366;52.498;13.446;2023-03-01T04:33:54;0.10;99.90
37518;DHT22;23366;52.498;13.446;2023-03-01T04:36:21;0.10;99.90
37518;DHT22;23366;52.498;13.446;2023-03-01T04:38:47;0.10;99.90
37518;DHT22;23366;52.498;13.446;2023-03-01T04:41:13;0.10;99.90
37518;DHT22;23366;52.498;13.446;2023-03-01T04:43:40;0.10;99.90
37518;DHT22;23366;52.498;13.446;2023-03-01T04:46:09;0.10;99.90
37518;DHT22;23366;52.498;13.446;2023-03-01T04:48:37;0.10;99.90
37518;DHT22;23366;52.498;13.446;2023-03-01T04:51:13;0.10;99.90
37518;DHT22;23366;52.498;13.446;2023-03-01T04:53:39;0.10;99.90
37518;DHT22;23366;52.498;13.446;2023-03-01T04:56:05;0.10;99.90
37518;DHT22;23366;52.498;13.446;2023-03-01T04:58:32;0.10;99.90
37518;DHT22;23366;52.498;13.446;2023-03-01T05:01:24;0.00;99.90
37518;DHT22;23366;52.498;13.446;2023-03-01T05:04:10;0.00;99.90
37518;DHT22;23366;52.498;13.446;2023-03-01T05:06:38;0.00;99.90
37518;DHT22;23366;52.498;13.446;2023-03-01T05:09:08;0.00;99.90
37518;DHT22;23366;52.498;13.446;2023-03-01T05:11:34;0.00;99.90
37518;DHT22;23366;52.498;13.446;2023-03-01T05:14:10;0.00;99.90
37518;DHT22;23366;52.498;13.446;2023-03-01T05:17:14;0.10;99.90
37518;DHT22;23366;52.498;13.446;2023-03-01T05:19:52;0.00;99.90
37518;DHT22;23366;52.498;13.446;2023-03-01T05:22:17;0.10;99.90
37518;DHT22;23366;52.498;13.446;2023-03-01T05:24:44;0.00;99.90
37518;DHT22;23366;52.498;13.446;2023-03-01T05:27:12;0.00;99.90
37518;DHT22;23366;52.498;13.446;2023-03-01T05:29:38;0.00;99.90
37518;DHT22;23366;52.498;13.446;2023-03-01T05:32:04;0.00;99.90
37518;DHT22;23366;52.498;13.446;2023-03-01T05:34:34;0.00;99.90
37518;DHT22;23366;52.498;13.446;2023-03-01T05:37:01;-0.10;99.90
37518;DHT22;23366;52.498;13.446;2023-03-01T05:39:28;-0.20;99.90
37518;DHT22;23366;52.498;13.446;2023-03-01T05:42:00;-0.20;99.90
37518;DHT22;23366;52.498;13.446;2023-03-01T05:44:27;-0.20;99.90
37518;DHT22;23366;52.498;13.446;2023-03-01T05:46:53;-0.20;99.90
37518;DHT22;23366;52.498;13.446;2023-03-01T05:49:19;-0.20;99.90
37518;DHT22;23366;52.498;13.446;2023-03-01T05:51:50;-0.20;99.90
37518;DHT22;23366;52.498;13.446;2023-03-01T05:54:20;-0.10;99.90
37518;DHT22;23366;52.498;13.446;2023-03-01T05:56:53;-0.10;99.90
37518;DHT22;23366;52.498;13.446;2023-03-01T05:59:39;-0.10;99.90
37518;DHT22;23366;52.498;13.446;2023-03-01T06:02:05;0.00;99.90
37518;DHT22;23366;52.498;13.446;2023-03-01T06:04:31;0.00;99.90
37518;DHT22;23366;52.498;13.446;2023-03-01T06:06:56;0.00;99.90
37518;DHT22;23366;52.498;13.446;2023-03-01T06:09:22;0.10;99.90
37518;DHT22;23366;52.498;13.446;2023-03-01T06:11:47;0.10;99.90
37518;DHT22;23366;52.498;13.446;2023-03-01T06:14:14;0.10;99.90
37518;DHT22;23366;52.498;13.446;2023-03-01T06:16:40;0.20;99.90
37518;DHT22;23366;52.498;13.446;2023-03-01T06:19:07;0.10;99.90
37518;DHT22;23366;52.498;13.446;2023-03-01T06:21:33;0.20;99.90
37518;DHT22;23366;52.498;13.446;2023-03-01T06:23:59;0.20;99.90
37518;DHT22;23366;52.498;13.446;2023-03-01T06:26:25;0.40;99.90
37518;DHT22;23366;52.498;13.446;2023-03-01T06:28:50;0.30;99.90
37518;DHT22;23366;52.498;13.446;2023-03-01T06:31:16;0.40;99.90
37518;DHT22;23366;52.498;13.446;2023-03-01T06:33:41;0.50;99.90
37518;DHT22;23366;52.498;13.446;2023-03-01T06:36:14;0.60;99.90
37518;DHT22;23366;52.498;13.446;2023-03-01T06:38:44;0.70;99.90
37518;DHT22;23366;52.498;13.446;2023-03-01T06:41:09;1.00;99.90
37518;DHT22;23366;52.498;13.446;2023-03-01T06:43:35;1.20;99.90
37518;DHT22;23366;52.498;13.446;2023-03-01T06:46:04;1.50;99.90
37518;DHT22;23366;52.498;13.446;2023-03-01T06:48:33;1.80;99.90
37518;DHT22;23366;52.498;13.446;2023-03-01T06:51:00;2.10;99.90
37518;DHT22;23366;52.498;13.446;2023-03-01T06:53:27;2.30;99.90
37518;DHT22;23366;52.498;13.446;2023-03-01T06:55:57;2.70;99.90
37518;DHT22;23366;52.498;13.446;2023-03-01T06:58:23;2.90;99.90
37518;DHT22;23366;52.498;13.446;2023-03-01T07:00:58;3.20;99.90
37518;DHT22;23366;52.498;13.446;2023-03-01T07:03:26;3.20;99.90
37518;DHT22;23366;52.498;13.446;2023-03-01T07:05:52;3.60;99.90
37518;DHT22;23366;52.498;13.446;2023-03-01T07:08:28;4.10;99.90
37518;DHT22;23366;52.498;13.446;2023-03-01T07:10:58;4.50;99.90
37518;DHT22;23366;52.498;13.446;2023-03-01T07:13:24;4.90;99.90
37518;DHT22;23366;52.498;13.446;2023-03-01T07:15:50;5.40;99.90
37518;DHT22;23366;52.498;13.446;2023-03-01T07:18:20;5.80;99.90
37518;DHT22;23366;52.498;13.446;2023-03-01T07:20:51;6.20;99.90
37518;DHT22;23366;52.498;13.446;2023-03-01T07:23:17;6.60;99.90
37518;DHT22;23366;52.498;13.446;2023-03-01T07:29:03;7.20;99.90
37518;DHT22;23366;52.498;13.446;2023-03-01T07:31:54;7.60;99.10
37518;DHT22;23366;52.498;13.446;2023-03-01T07:34:20;7.80;98.50
37518;DHT22;23366;52.498;13.446;2023-03-01T07:36:55;8.00;97.80
37518;DHT22;23366;52.498;13.446;2023-03-01T07:39:35;8.10;96.90
37518;DHT22;23366;52.498;13.446;2023-03-01T07:45:12;9.00;95.40
37518;DHT22;23366;52.498;13.446;2023-03-01T07:47:41;9.10;95.10
37518;DHT22;23366;52.498;13.446;2023-03-01T07:50:17;9.30;94.00
37518;DHT22;23366;52.498;13.446;2023-03-01T07:52:47;9.30;92.60
37518;DHT22;23366;52.498;13.446;2023-03-01T07:55:19;9.50;92.40
37518;DHT22;23366;52.498;13.446;2023-03-01T07:57:45;9.40;92.60
37518;DHT22;23366;52.498;13.446;2023-03-01T08:00:14;9.90;92.40
37518;DHT22;23366;52.498;13.446;2023-03-01T08:02:45;10.40;91.70
37518;DHT22;23366;52.498;13.446;2023-03-01T08:05:17;10.40;90.00
37518;DHT22;23366;52.498;13.446;2023-03-01T08:07:45;10.90;89.20
37518;DHT22;23366;52.498;13.446;2023-03-01T08:10:16;11.30;87.20
37518;DHT22;23366;52.498;13.446;2023-03-01T08:12:44;11.70;85.20
37518;DHT22;23366;52.498;13.446;2023-03-01T08:15:30;12.10;83.50
37518;DHT22;23366;52.498;13.446;2023-03-01T08:18:13;12.30;79.60
37518;DHT22;23366;52.498;13.446;2023-03-01T08:20:46;12.40;77.70
37518;DHT22;23366;52.498;13.446;2023-03-01T08:23:24;12.80;76.10
37518;DHT22;23366;52.498;13.446;2023-03-01T08:26:09;12.80;73.60
37518;DHT22;23366;52.498;13.446;2023-03-01T08:28:52;12.90;72.90
37518;DHT22;23366;52.498;13.446;2023-03-01T08:34:02;12.80;71.10
37518;DHT22;23366;52.498;13.446;2023-03-01T08:36:45;12.20;71.90
37518;DHT22;23366;52.498;13.446;2023-03-01T08:42:42;10.90;74.20
37518;DHT22;23366;52.498;13.446;2023-03-01T08:45:31;10.00;75.50
37518;DHT22;23366;52.498;13.446;2023-03-01T08:47:59;9.60;76.50
37518;DHT22;23366;52.498;13.446;2023-03-01T08:50:28;9.40;78.10
37518;DHT22;23366;52.498;13.446;2023-03-01T08:52:57;8.80;78.60
37518;DHT22;23366;52.498;13.446;2023-03-01T08:55:46;8.60;81.50
37518;DHT22;23366;52.498;13.446;2023-03-01T08:58:11;8.60;81.50
37518;DHT22;23366;52.498;13.446;2023-03-01T09:00:37;8.40;80.60
37518;DHT22;23366;52.498;13.446;2023-03-01T09:03:28;8.20;81.20
37518;DHT22;23366;52.498;13.446;2023-03-01T09:06:03;8.10;83.20
37518;DHT22;23366;52.498;13.446;2023-03-01T09:08:43;8.10;82.90
37518;DHT22;23366;52.498;13.446;2023-03-01T09:11:38;7.80;82.20
37518;DHT22;23366;52.498;13.446;2023-03-01T09:14:18;7.70;82.50
37518;DHT22;23366;52.498;13.446;2023-03-01T09:16:45;7.60;81.90
37518;DHT22;23366;52.498;13.446;2023-03-01T09:19:17;7.50;84.50
37518;DHT22;23366;52.498;13.446;2023-03-01T09:22:08;7.70;85.10
37518;DHT22;23366;52.498;13.446;2023-03-01T09:24:38;7.70;84.40
37518;DHT22;23366;52.498;13.446;2023-03-01T09:27:04;7.90;84.70
37518;DHT22;23366;52.498;13.446;2023-03-01T09:29:40;7.90;83.90
37518;DHT22;23366;52.498;13.446;2023-03-01T09:32:11;8.00;82.40
37518;DHT22;23366;52.498;13.446;2023-03-01T09:34:36;8.00;80.30
37518;DHT22;23366;52.498;13.446;2023-03-01T09:37:20;7.90;82.70
37518;DHT22;23366;52.498;13.446;2023-03-01T09:39:46;7.90;82.50
37518;DHT22;23366;52.498;13.446;2023-03-01T09:45:11;7.80;81.90
37518;DHT22;23366;52.498;13.446;2023-03-01T09:47:40;7.80;82.60
37518;DHT22;23366;52.498;13.446;2023-03-01T09:50:16;7.80;83.20
37518;DHT22;23366;52.498;13.446;2023-03-01T09:52:47;7.90;83.20
37518;DHT22;23366;52.498;13.446;2023-03-01T09:55:30;8.00;83.20
37518;DHT22;23366;52.498;13.446;2023-03-01T09:58:31;7.90;82.30
37518;DHT22;23366;52.498;13.446;2023-03-01T10:09:43;8.10;82.10
37518;DHT22;23366;52.498;13.446;2023-03-01T10:12:23;8.10;81.20
37518;DHT22;23366;52.498;13.446;2023-03-01T10:15:00;8.30;81.50
37518;DHT22;23366;52.498;13.446;2023-03-01T10:22:45;8.30;79.40
37518;DHT22;23366;52.498;13.446;2023-03-01T10:25:24;8.30;79.50
37518;DHT22;23366;52.498;13.446;2023-03-01T10:28:01;8.20;79.20
37518;DHT22;23366;52.498;13.446;2023-03-01T10:30:35;8.00;78.70
37518;DHT22;23366;52.498;13.446;2023-03-01T10:33:17;8.00;80.10
37518;DHT22;23366;52.498;13.446;2023-03-01T10:35:46;7.80;80.30
37518;DHT22;23366;52.498;13.446;2023-03-01T10:38:21;7.90;81.40
37518;DHT22;23366;52.498;13.446;2023-03-01T10:40:57;8.00;81.40
37518;DHT22;23366;52.498;13.446;2023-03-01T10:43:40;8.00;81.10
37518;DHT22;23366;52.498;13.446;2023-03-01T10:49:14;8.00;80.20
37518;DHT22;23366;52.498;13.446;2023-03-01T10:52:11;8.10;80.80
37518;DHT22;23366;52.498;13.446;2023-03-01T10:58:07;8.10;80.10
37518;DHT22;23366;52.498;13.446;2023-03-01T11:06:34;8.20;79.10
37518;DHT22;23366;52.498;13.446;2023-03-01T11:09:18;8.10;78.50
37518;DHT22;23366;52.498;13.446;2023-03-01T11:11:52;7.90;78.70
37518;DHT22;23366;52.498;13.446;2023-03-01T11:14:37;7.90;76.60
37518;DHT22;23366;52.498;13.446;2023-03-01T11:17:10;7.80;76.70
37518;DHT22;23366;52.498;13.446;2023-03-01T11:19:49;7.60;77.80
37518;DHT22;23366;52.498;13.446;2023-03-01T11:22:52;7.60;77.20
37518;DHT22;23366;52.498;13.446;2023-03-01T11:25:25;7.70;77.40
37518;DHT22;23366;52.498;13.446;2023-03-01T11:27:59;7.80;77.80
37518;DHT22;23366;52.498;13.446;2023-03-01T11:30:34;7.90;76.50
37518;DHT22;23366;52.498;13.446;2023-03-01T11:33:13;7.60;76.10
37518;DHT22;23366;52.498;13.446;2023-03-01T11:35:46;7.70;77.80
37518;DHT22;23366;52.498;13.446;2023-03-01T11:38:24;7.80;75.80
37518;DHT22;23366;52.498;13.446;2023-03-01T11:41:00;7.90;75.60
37518;DHT22;23366;52.498;13.446;2023-03-01T11:52:29;7.90;73.90
37518;DHT22;23366;52.498;13.446;2023-03-01T11:55:19;7.80;70.40
37518;DHT22;23366;52.498;13.446;2023-03-01T12:01:02;7.90;70.70
37518;DHT22;23366;52.498;13.446;2023-03-01T12:03:36;7.90;70.60
37518;DHT22;23366;52.498;13.446;2023-03-01T12:14:42;7.90;70.00
37518;DHT22;23366;52.498;13.446;2023-03-01T12:19:53;7.90;70.10
37518;DHT22;23366;52.498;13.446;2023-03-01T12:23:15;8.00;69.20
37518;DHT22;23366;52.498;13.446;2023-03-01T12:25:55;7.90;68.20
37518;DHT22;23366;52.498;13.446;2023-03-01T12:31:08;7.80;67.70
37518;DHT22;23366;52.498;13.446;2023-03-01T12:33:43;7.90;67.20
37518;DHT22;23366;52.498;13.446;2023-03-01T12:36:35;8.00;67.40
37518;DHT22;23366;52.498;13.446;2023-03-01T12:42:36;8.00;68.20
37518;DHT22;23366;52.498;13.446;2023-03-01T12:45:50;7.90;68.50
37518;DHT22;23366;52.498;13.446;2023-03-01T12:48:47;7.90;68.90
37518;DHT22;23366;52.498;13.446;2023-03-01T12:51:29;7.80;69.60
37518;DHT22;23366;52.498;13.446;2023-03-01T12:53:59;7.90;70.10
37518;DHT22;23366;52.498;13.446;2023-03-01T13:16:44;7.80;68.10
37518;DHT22;23366;52.498;13.446;2023-03-01T13:20:24;7.80;68.50
37518;DHT22;23366;52.498;13.446;2023-03-01T13:23:32;7.80;67.40
37518;DHT22;23366;52.498;13.446;2023-03-01T13:36:50;7.90;65.40
37518;DHT22;23366;52.498;13.446;2023-03-01T14:20:49;7.70;65.80
37518;DHT22;23366;52.498;13.446;2023-03-01T14:24:04;7.70;66.10
37518;DHT22;23366;52.498;13.446;2023-03-01T14:27:12;7.70;67.60
37518;DHT22;23366;52.498;13.446;2023-03-01T14:29:44;7.70;67.70
37518;DHT22;23366;52.498;13.446;2023-03-01T14:32:42;7.70;67.40
37518;DHT22;23366;52.498;13.446;2023-03-01T14:36:01;7.80;69.00
37518;DHT22;23366;52.498;13.446;2023-03-01T14:38:49;7.80;69.20
37518;DHT22;23366;52.498;13.446;2023-03-01T14:41:23;7.80;68.40
37518;DHT22;23366;52.498;13.446;2023-03-01T14:44:40;7.80;69.00
37518;DHT22;23366;52.498;13.446;2023-03-01T14:48:12;7.80;70.70
37518;DHT22;23366;52.498;13.446;2023-03-01T14:50:43;7.80;71.00
37518;DHT22;23366;52.498;13.446;2023-03-01T14:53:39;7.90;70.40
37518;DHT22;23366;52.498;13.446;2023-03-01T14:56:29;7.90;70.90
37518;DHT22;23366;52.498;13.446;2023-03-01T15:02:22;7.80;72.50
37518;DHT22;23366;52.498;13.446;2023-03-01T15:05:00;7.80;73.10
37518;DHT22;23366;52.498;13.446;2023-03-01T15:07:32;7.80;74.20
37518;DHT22;23366;52.498;13.446;2023-03-01T15:10:04;7.80;74.00
37518;DHT22;23366;52.498;13.446;2023-03-01T15:12:38;7.80;74.20
37518;DHT22;23366;52.498;13.446;2023-03-01T15:15:38;7.70;74.60
37518;DHT22;23366;52.498;13.446;2023-03-01T15:18:13;7.70;75.80
37518;DHT22;23366;52.498;13.446;2023-03-01T15:20:40;7.70;76.10
37518;DHT22;23366;52.498;13.446;2023-03-01T15:23:05;7.70;76.50
37518;DHT22;23366;52.498;13.446;2023-03-01T15:25:45;7.60;76.50
37518;DHT22;23366;52.498;13.446;2023-03-01T15:28:18;7.70;77.20
37518;DHT22;23366;52.498;13.446;2023-03-01T15:30:53;7.70;76.60
37518;DHT22;23366;52.498;13.446;2023-03-01T15:33:31;7.60;76.70
37518;DHT22;23366;52.498;13.446;2023-03-01T15:35:58;7.60;76.70
37518;DHT22;23366;52.498;13.446;2023-03-01T15:38:55;7.60;76.60
37518;DHT22;23366;52.498;13.446;2023-03-01T15:41:33;7.60;77.00
37518;DHT22;23366;52.498;13.446;2023-03-01T15:44:27;7.60;77.00
37518;DHT22;23366;52.498;13.446;2023-03-01T15:46:53;7.50;76.70
37518;DHT22;23366;52.498;13.446;2023-03-01T15:49:42;7.50;76.60
37518;DHT22;23366;52.498;13.446;2023-03-01T15:52:13;7.50;77.00
37518;DHT22;23366;52.498;13.446;2023-03-01T15:54:41;7.50;77.80
37518;DHT22;23366;52.498;13.446;2023-03-01T15:57:13;7.40;77.90
37518;DHT22;23366;52.498;13.446;2023-03-01T15:59:45;7.40;77.20
37518;DHT22;23366;52.498;13.446;2023-03-01T16:02:14;7.30;78.10
37518;DHT22;23366;52.498;13.446;2023-03-01T16:04:40;7.30;77.80
37518;DHT22;23366;52.498;13.446;2023-03-01T16:07:06;7.30;78.00
37518;DHT22;23366;52.498;13.446;2023-03-01T16:09:32;7.30;78.30
37518;DHT22;23366;52.498;13.446;2023-03-01T16:11:58;7.30;78.30
37518;DHT22;23366;52.498;13.446;2023-03-01T16:14:23;7.20;78.90
37518;DHT22;23366;52.498;13.446;2023-03-01T16:16:52;7.20;79.50
37518;DHT22;23366;52.498;13.446;2023-03-01T16:19:18;7.10;80.40
37518;DHT22;23366;52.498;13.446;2023-03-01T16:21:44;7.10;79.90
37518;DHT22;23366;52.498;13.446;2023-03-01T16:24:12;7.00;80.30
37518;DHT22;23366;52.498;13.446;2023-03-01T16:26:38;7.00;80.10
37518;DHT22;23366;52.498;13.446;2023-03-01T16:29:05;7.00;80.60
37518;DHT22;23366;52.498;13.446;2023-03-01T16:42:08;6.80;81.50
37518;DHT22;23366;52.498;13.446;2023-03-01T16:44:43;6.70;83.10
37518;DHT22;23366;52.498;13.446;2023-03-01T16:47:29;6.70;83.30
37518;DHT22;23366;52.498;13.446;2023-03-01T16:50:42;6.60;83.20
37518;DHT22;23366;52.498;13.446;2023-03-01T16:53:31;6.70;83.80
37518;DHT22;23366;52.498;13.446;2023-03-01T16:56:17;6.60;84.10
37518;DHT22;23366;52.498;13.446;2023-03-01T16:59:15;6.60;84.20
37518;DHT22;23366;52.498;13.446;2023-03-01T17:01:41;6.60;84.30
37518;DHT22;23366;52.498;13.446;2023-03-01T17:04:11;6.50;84.70
37518;DHT22;23366;52.498;13.446;2023-03-01T17:06:44;6.50;84.70
37518;DHT22;23366;52.498;13.446;2023-03-01T17:09:40;6.50;85.20
37518;DHT22;23366;52.498;13.446;2023-03-01T17:12:14;6.50;86.50
37518;DHT22;23366;52.498;13.446;2023-03-01T17:14:41;6.40;86.70
37518;DHT22;23366;52.498;13.446;2023-03-01T17:17:19;6.40;86.60
37518;DHT22;23366;52.498;13.446;2023-03-01T17:20:05;6.30;86.90
37518;DHT22;23366;52.498;13.446;2023-03-01T17:25:58;6.30;87.90
37518;DHT22;23366;52.498;13.446;2023-03-01T17:28:42;6.30;88.20
37518;DHT22;23366;52.498;13.446;2023-03-01T17:31:44;6.20;89.10
37518;DHT22;23366;52.498;13.446;2023-03-01T17:34:36;6.20;89.20
37518;DHT22;23366;52.498;13.446;2023-03-01T17:37:25;6.20;88.60
37518;DHT22;23366;52.498;13.446;2023-03-01T17:39:55;6.20;89.50
37518;DHT22;23366;52.498;13.446;2023-03-01T17:42:26;6.20;89.50
37518;DHT22;23366;52.498;13.446;2023-03-01T17:44:54;6.20;89.60
37518;DHT22;23366;52.498;13.446;2023-03-01T17:47:20;6.10;89.80
37518;DHT22;23366;52.498;13.446;2023-03-01T17:49:45;6.10;90.10
37518;DHT22;23366;52.498;13.446;2023-03-01T17:52:14;6.10;90.30
37518;DHT22;23366;52.498;13.446;2023-03-01T17:54:39;6.10;90.40
37518;DHT22;23366;52.498;13.446;2023-03-01T17:57:07;6.10;90.60
37518;DHT22;23366;52.498;13.446;2023-03-01T17:59:36;6.00;90.60
37518;DHT22;23366;52.498;13.446;2023-03-01T18:02:02;6.10;90.80
37518;DHT22;23366;52.498;13.446;2023-03-01T18:04:28;6.00;90.80
37518;DHT22;23366;52.498;13.446;2023-03-01T18:06:53;6.00;90.90
37518;DHT22;23366;52.498;13.446;2023-03-01T18:09:20;6.00;91.30
37518;DHT22;23366;52.498;13.446;2023-03-01T18:11:49;6.00;91.10
37518;DHT22;23366;52.498;13.446;2023-03-01T18:14:17;6.00;91.20
37518;DHT22;23366;52.498;13.446;2023-03-01T18:16:42;6.00;91.50
37518;DHT22;23366;52.498;13.446;2023-03-01T18:19:10;6.00;91.70
37518;DHT22;23366;52.498;13.446;2023-03-01T18:21:35;5.90;92.10
37518;DHT22;23366;52.498;13.446;2023-03-01T18:24:01;5.90;91.80
37518;DHT22;23366;52.498;13.446;2023-03-01T18:26:27;5.90;92.10
37518;DHT22;23366;52.498;13.446;2023-03-01T18:28:54;5.90;92.20
37518;DHT22;23366;52.498;13.446;2023-03-01T18:31:23;5.80;92.20
37518;DHT22;23366;52.498;13.446;2023-03-01T18:33:51;5.80;92.20
37518;DHT22;23366;52.498;13.446;2023-03-01T18:36:23;5.80;92.40
37518;DHT22;23366;52.498;13.446;2023-03-01T18:38:49;5.80;92.50
37518;DHT22;23366;52.498;13.446;2023-03-01T18:41:17;5.80;92.60
37518;DHT22;23366;52.498;13.446;2023-03-01T18:43:43;5.80;92.80
37518;DHT22;23366;52.498;13.446;2023-03-01T18:46:09;5.70;93.00
37518;DHT22;23366;52.498;13.446;2023-03-01T18:48:34;5.80;93.10
37518;DHT22;23366;52.498;13.446;2023-03-01T18:51:15;5.70;93.40
37518;DHT22;23366;52.498;13.446;2023-03-01T18:53:41;5.60;93.50
37518;DHT22;23366;52.498;13.446;2023-03-01T18:56:08;5.60;93.50
37518;DHT22;23366;52.498;13.446;2023-03-01T18:58:33;5.50;93.60
37518;DHT22;23366;52.498;13.446;2023-03-01T19:00:59;5.50;93.70
37518;DHT22;23366;52.498;13.446;2023-03-01T19:03:29;5.50;93.80